Time;durP1;ratioP1;P1;durP2;ratioP2;P2;SDS_P1;SDS_P2;PMS_P1;PMS_P2;Temp;Humidity;BMP_temperature;BMP_pressure;BME280_temperature;BME280_humidity;BME280_pressure;Samples;Min_cycle;Max_cycle;Signal;HPM_P1;HPM_P2
2022/01/11 00:01:00;;;;;;;26.95;22.48;;;3.90;99.90;;;;;;5023704;28;20256;-79
2022/01/11 00:03:27;;;;;;;29.83;23.27;;;3.90;99.90;;;;;;5020917;28;20699;-80
2022/01/11 00:05:58;;;;;;;24.13;21.40;;;4.00;99.90;;;;;;5022713;28;20205;-80
2022/01/11 00:08:31;;;;;;;29.38;23.38;;;4.00;99.90;;;;;;5021040;28;20220;-80
2022/01/11 00:11:04;;;;;;;33.78;23.80;;;4.00;99.90;;;;;;5021030;28;20279;-80
2022/01/11 00:13:33;;;;;;;27.40;21.80;;;4.10;99.90;;;;;;5019913;28;20219;-80
2022/01/11 00:16:00;;;;;;;28.58;22.50;;;4.10;99.90;;;;;;5018743;28;20200;-80
2022/01/11 00:18:27;;;;;;;27.77;22.40;;;4.10;99.90;;;;;;5018573;28;20230;-79
2022/01/11 00:20:55;;;;;;;24.52;21.58;;;4.10;99.90;;;;;;5021739;28;20287;-80
2022/01/11 00:26:07;;;;;;;27.95;22.17;;;4.10;99.90;;;;;;5028204;28;20218;-80
2022/01/11 00:28:35;;;;;;;28.15;23.50;;;4.10;99.90;;;;;;5020248;28;20216;-81
2022/01/11 00:31:05;;;;;;;25.65;21.65;;;4.10;99.90;;;;;;5019189;28;20290;-80
2022/01/11 00:33:37;;;;;;;26.60;22.30;;;4.00;99.90;;;;;;5020406;28;20286;-80
2022/01/11 00:36:06;;;;;;;25.75;22.05;;;4.00;99.90;;;;;;5022113;28;20192;-80
2022/01/11 00:38:35;;;;;;;28.05;22.75;;;4.10;99.90;;;;;;5019126;28;20236;-80
2022/01/11 00:41:05;;;;;;;26.45;22.23;;;4.10;99.90;;;;;;5018696;28;20207;-80
2022/01/11 00:43:34;;;;;;;26.20;23.48;;;4.20;99.90;;;;;;5017559;28;20232;-80
2022/01/11 00:46:03;;;;;;;28.52;23.45;;;4.20;99.90;;;;;;5022489;28;20202;-80
2022/01/11 00:48:30;;;;;;;28.55;22.40;;;4.30;99.90;;;;;;5018527;28;20584;-81
2022/01/11 00:51:00;;;;;;;24.23;21.40;;;4.30;99.90;;;;;;5020625;28;20197;-81
2022/01/11 00:53:27;;;;;;;24.20;19.83;;;4.30;99.90;;;;;;5020856;28;20201;-79
2022/01/11 00:55:54;;;;;;;26.25;21.65;;;4.30;99.90;;;;;;5020837;28;20252;-79
2022/01/11 00:58:22;;;;;;;25.00;21.33;;;4.40;99.90;;;;;;5024038;28;20221;-80
2022/01/11 01:00:49;;;;;;;25.63;22.02;;;4.40;99.90;;;;;;5020271;28;21583;-80
2022/01/11 01:03:17;;;;;;;26.25;21.48;;;4.40;99.90;;;;;;5017249;28;20232;-80
2022/01/11 01:05:45;;;;;;;28.48;21.38;;;4.30;99.90;;;;;;5023203;28;20216;-80
2022/01/11 01:08:12;;;;;;;23.95;20.92;;;4.30;99.90;;;;;;5023339;28;20217;-80
2022/01/11 01:10:45;;;;;;;28.70;23.05;;;4.30;99.90;;;;;;5019104;28;20204;-80
2022/01/11 01:13:17;;;;;;;24.83;21.55;;;4.20;99.90;;;;;;5019557;28;20196;-79
2022/01/11 01:15:47;;;;;;;23.45;20.90;;;4.10;99.90;;;;;;5017903;28;20272;-80
2022/01/11 01:18:15;;;;;;;24.63;21.42;;;4.00;99.90;;;;;;5019462;28;20220;-79
2022/01/11 01:20:45;;;;;;;25.92;21.23;;;4.00;99.90;;;;;;5018059;28;20198;-79
2022/01/11 01:23:13;;;;;;;24.23;20.73;;;3.90;99.90;;;;;;5018338;28;20688;-79
2022/01/11 01:25:41;;;;;;;25.50;22.30;;;3.90;99.90;;;;;;5025326;28;20201;-79
2022/01/11 01:28:07;;;;;;;26.23;21.23;;;4.00;99.90;;;;;;5019590;28;20246;-79
2022/01/11 01:30:35;;;;;;;24.88;21.73;;;3.90;99.90;;;;;;5019509;28;20229;-79
2022/01/11 01:33:03;;;;;;;23.80;20.90;;;3.90;99.90;;;;;;5021827;28;20197;-80
2022/01/11 01:35:35;;;;;;;24.35;20.83;;;3.90;99.90;;;;;;5020741;28;20217;-79
2022/01/11 01:38:04;;;;;;;29.08;21.90;;;4.00;99.90;;;;;;5018548;28;20319;-80
2022/01/11 01:40:37;;;;;;;28.05;21.00;;;4.00;99.90;;;;;;5017861;28;20660;-79
2022/01/11 01:43:05;;;;;;;24.70;21.92;;;4.00;99.90;;;;;;5018102;28;20223;-80
2022/01/11 01:45:32;;;;;;;26.08;19.92;;;4.00;99.90;;;;;;5016596;28;20612;-79
2022/01/11 01:47:59;;;;;;;26.73;20.90;;;4.00;99.90;;;;;;5017899;28;20224;-79
2022/01/11 01:50:27;;;;;;;27.15;20.80;;;4.00;99.90;;;;;;5018348;28;20723;-79
2022/01/11 01:52:54;;;;;;;25.60;19.65;;;4.00;99.90;;;;;;5018572;28;20657;-80
2022/01/11 01:55:23;;;;;;;25.13;21.92;;;4.00;99.90;;;;;;5020726;28;20196;-79
2022/01/11 01:57:51;;;;;;;27.63;21.90;;;4.00;99.90;;;;;;5022619;28;20233;-80
2022/01/11 02:00:20;;;;;;;24.98;22.23;;;4.00;99.90;;;;;;5025933;28;20682;-80
2022/01/11 02:02:47;;;;;;;27.88;21.23;;;4.00;99.90;;;;;;5027480;28;20269;-79
2022/01/11 02:05:14;;;;;;;25.23;20.70;;;4.10;99.90;;;;;;5024026;28;20232;-79
2022/01/11 02:07:41;;;;;;;25.65;21.13;;;4.10;99.90;;;;;;5022988;28;20226;-80
2022/01/11 02:10:12;;;;;;;24.88;20.25;;;4.10;99.90;;;;;;5023601;28;20194;-79
2022/01/11 02:12:40;;;;;;;25.35;20.45;;;4.10;99.90;;;;;;5022441;28;20200;-79
2022/01/11 02:15:08;;;;;;;24.15;20.88;;;4.10;99.90;;;;;;5022031;28;20283;-79
2022/01/11 02:17:36;;;;;;;27.25;20.48;;;4.20;99.90;;;;;;5026199;28;20730;-80
2022/01/11 02:20:04;;;;;;;26.33;20.88;;;4.20;99.90;;;;;;5020392;28;20652;-80
2022/01/11 02:22:32;;;;;;;24.52;21.40;;;4.20;99.90;;;;;;5022277;28;20263;-80
2022/01/11 02:24:59;;;;;;;23.17;18.83;;;4.30;99.90;;;;;;5022852;28;20231;-79
2022/01/11 02:27:26;;;;;;;29.05;21.05;;;4.30;99.90;;;;;;5028623;28;20202;-79
2022/01/11 02:29:54;;;;;;;25.83;22.00;;;4.20;99.90;;;;;;5022862;28;20211;-79
2022/01/11 02:32:21;;;;;;;25.42;21.25;;;4.20;99.90;;;;;;5023296;28;20204;-80
2022/01/11 02:34:48;;;;;;;25.75;21.27;;;4.20;99.90;;;;;;5022048;28;20212;-80
2022/01/11 02:37:15;;;;;;;25.05;19.70;;;4.20;99.90;;;;;;5021878;28;20203;-80
2022/01/11 02:39:46;;;;;;;22.63;20.15;;;4.20;99.90;;;;;;5021198;28;20197;-80
2022/01/11 02:42:14;;;;;;;23.25;18.90;;;4.20;99.90;;;;;;5019273;28;22070;-80
2022/01/11 02:44:41;;;;;;;24.27;20.00;;;4.20;99.90;;;;;;5019040;28;20234;-79
2022/01/11 02:47:08;;;;;;;28.05;21.10;;;4.20;99.90;;;;;;5029783;28;20288;-80
2022/01/11 02:49:35;;;;;;;23.75;20.20;;;4.20;99.90;;;;;;5009176;28;20293;-79
2022/01/11 02:52:02;;;;;;;25.85;19.67;;;4.20;99.90;;;;;;5019549;28;20210;-79
2022/01/11 02:54:29;;;;;;;28.55;20.40;;;4.10;99.90;;;;;;5020631;28;20686;-79
2022/01/11 02:56:57;;;;;;;22.40;19.73;;;4.10;99.90;;;;;;5022590;28;20215;-79
2022/01/11 02:59:24;;;;;;;27.55;20.20;;;4.10;99.90;;;;;;5021325;28;20321;-80
2022/01/11 03:01:51;;;;;;;22.85;20.25;;;4.10;99.90;;;;;;5021495;28;21086;-80
2022/01/11 03:04:18;;;;;;;25.83;20.50;;;4.10;99.90;;;;;;5020238;28;20316;-80
2022/01/11 03:06:45;;;;;;;25.63;19.85;;;4.10;99.90;;;;;;5020923;28;20268;-80
2022/01/11 03:09:12;;;;;;;26.13;21.52;;;4.10;99.90;;;;;;5024591;28;20245;-79
2022/01/11 03:11:40;;;;;;;25.20;19.73;;;4.10;99.90;;;;;;5020645;28;20203;-79
2022/01/11 03:14:09;;;;;;;29.38;21.48;;;4.00;99.90;;;;;;5020482;28;20201;-80
2022/01/11 03:16:35;;;;;;;28.13;21.23;;;3.90;99.90;;;;;;5019059;28;20207;-80
2022/01/11 03:19:03;;;;;;;26.50;22.00;;;3.80;99.90;;;;;;5023588;28;20569;-79
2022/01/11 03:21:30;;;;;;;23.77;20.38;;;3.70;99.90;;;;;;5022957;28;20205;-79
2022/01/11 03:23:57;;;;;;;26.98;21.17;;;3.70;99.90;;;;;;5020577;28;20303;-79
2022/01/11 03:26:24;;;;;;;25.52;22.08;;;3.80;99.90;;;;;;5021681;28;20261;-80
2022/01/11 03:28:51;;;;;;;26.85;22.35;;;3.80;99.90;;;;;;5020888;28;20270;-80
2022/01/11 03:31:23;;;;;;;35.90;24.52;;;3.80;99.90;;;;;;5021609;28;20251;-79
2022/01/11 03:33:50;;;;;;;23.73;20.85;;;3.80;99.90;;;;;;5020347;28;20674;-80
2022/01/11 03:36:17;;;;;;;27.33;22.90;;;3.80;99.90;;;;;;5020422;28;20200;-80
2022/01/11 03:38:44;;;;;;;25.17;21.38;;;3.80;99.90;;;;;;5024505;28;20234;-79
2022/01/11 03:41:12;;;;;;;26.65;22.30;;;3.70;99.90;;;;;;5019759;28;20195;-79
2022/01/11 03:43:40;;;;;;;25.90;21.63;;;3.70;99.90;;;;;;5019019;28;20312;-79
2022/01/11 03:46:07;;;;;;;29.02;21.88;;;3.70;99.90;;;;;;5020699;28;20653;-79
2022/01/11 03:48:36;;;;;;;25.55;22.75;;;3.60;99.90;;;;;;5018866;28;21433;-79
2022/01/11 03:51:03;;;;;;;26.25;21.35;;;3.60;99.90;;;;;;5002586;28;21610;-80
2022/01/11 03:53:38;;;;;;;28.30;22.35;;;3.60;99.90;;;;;;5019713;28;20682;-80
2022/01/11 03:56:21;;;;;;;25.67;21.48;;;3.60;99.90;;;;;;5021391;28;20406;-79
2022/01/11 03:58:50;;;;;;;23.40;20.20;;;3.60;99.90;;;;;;5019685;28;20230;-79
2022/01/11 04:01:18;;;;;;;29.60;23.05;;;3.60;99.90;;;;;;5024539;28;20199;-80
2022/01/11 04:03:47;;;;;;;27.90;22.48;;;3.70;99.90;;;;;;5020487;28;20204;-80
2022/01/11 04:06:16;;;;;;;27.90;22.73;;;3.70;99.90;;;;;;5020946;28;20203;-80
2022/01/11 04:08:44;;;;;;;29.40;21.65;;;3.70;99.90;;;;;;5019759;28;20217;-80
2022/01/11 04:11:12;;;;;;;27.05;23.15;;;3.70;99.90;;;;;;5028360;28;20656;-80
2022/01/11 04:13:39;;;;;;;29.00;21.85;;;3.70;99.90;;;;;;5018361;28;20210;-80
2022/01/11 04:16:07;;;;;;;24.85;20.25;;;3.80;99.90;;;;;;5019598;28;20739;-80
2022/01/11 04:18:34;;;;;;;25.67;21.35;;;3.80;99.90;;;;;;5020349;28;20220;-79
2022/01/11 04:21:02;;;;;;;25.25;21.17;;;3.80;99.90;;;;;;5020213;28;20560;-80
2022/01/11 04:23:29;;;;;;;27.40;21.48;;;3.80;99.90;;;;;;5020619;28;20214;-80
2022/01/11 04:25:56;;;;;;;26.52;22.00;;;3.80;99.90;;;;;;5020743;28;20238;-80
2022/01/11 04:28:25;;;;;;;26.80;22.33;;;3.80;99.90;;;;;;5020869;28;20583;-79
2022/01/11 04:30:53;;;;;;;27.27;21.92;;;3.80;99.90;;;;;;5019929;28;20283;-79
2022/01/11 04:33:20;;;;;;;23.88;21.25;;;3.70;99.90;;;;;;5019814;28;20204;-80
2022/01/11 04:35:48;;;;;;;27.30;20.17;;;3.70;99.90;;;;;;5021426;28;20234;-80
2022/01/11 04:38:18;;;;;;;22.20;19.85;;;3.60;99.90;;;;;;5029675;28;20285;-79
2022/01/11 04:40:46;;;;;;;22.55;19.30;;;3.60;99.90;;;;;;5031444;28;20197;-79
2022/01/11 04:43:13;;;;;;;29.17;21.13;;;3.60;99.90;;;;;;5029562;28;20533;-80
2022/01/11 04:45:40;;;;;;;27.70;21.35;;;3.60;99.90;;;;;;5024331;28;20289;-80
2022/01/11 04:48:07;;;;;;;26.55;20.77;;;3.70;99.90;;;;;;5024035;28;20314;-80
2022/01/11 04:50:34;;;;;;;29.17;22.30;;;3.70;99.90;;;;;;5026891;28;20758;-80
2022/01/11 04:53:01;;;;;;;26.50;22.40;;;3.70;99.90;;;;;;5022655;28;20254;-79
2022/01/11 04:55:31;;;;;;;25.60;21.80;;;3.70;99.90;;;;;;5023940;28;20288;-79
2022/01/11 04:57:59;;;;;;;24.30;20.85;;;3.70;99.90;;;;;;5018986;28;20218;-79
2022/01/11 05:00:27;;;;;;;24.77;20.73;;;3.80;99.90;;;;;;5017811;28;20273;-79
2022/01/11 05:02:57;;;;;;;24.85;21.27;;;3.80;99.90;;;;;;5019504;28;20211;-79
2022/01/11 05:05:24;;;;;;;24.58;21.88;;;3.80;99.90;;;;;;5021273;28;20218;-79
2022/01/11 05:07:52;;;;;;;28.00;21.88;;;3.80;99.90;;;;;;5020265;28;20233;-80
2022/01/11 05:10:18;;;;;;;29.60;22.08;;;3.80;99.90;;;;;;5019605;28;20734;-79
2022/01/11 05:12:47;;;;;;;30.20;23.77;;;3.70;99.90;;;;;;5018204;28;21418;-80
2022/01/11 05:15:15;;;;;;;28.60;22.38;;;3.70;99.90;;;;;;5020836;28;20222;-80
2022/01/11 05:17:42;;;;;;;31.05;23.05;;;3.70;99.90;;;;;;5019982;28;20253;-78
2022/01/11 05:20:11;;;;;;;30.58;23.80;;;3.60;99.90;;;;;;5021827;28;20265;-80
2022/01/11 05:22:38;;;;;;;28.38;23.42;;;3.60;99.90;;;;;;5040365;28;20261;-80
2022/01/11 05:25:07;;;;;;;27.05;20.55;;;3.60;99.90;;;;;;5043994;28;20286;-78
2022/01/11 05:27:34;;;;;;;24.77;22.08;;;3.60;99.90;;;;;;5041805;28;20255;-78
2022/01/11 05:30:03;;;;;;;27.98;22.27;;;3.60;99.90;;;;;;5030513;28;20203;-78
2022/01/11 05:32:30;;;;;;;27.75;22.42;;;3.70;99.90;;;;;;5032747;28;20230;-78
2022/01/11 05:34:57;;;;;;;31.13;24.42;;;3.70;99.90;;;;;;5042344;28;20206;-78
2022/01/11 05:37:24;;;;;;;24.88;22.02;;;3.80;99.90;;;;;;5047571;28;20263;-77
2022/01/11 05:39:53;;;;;;;28.35;23.35;;;3.70;99.90;;;;;;5049507;28;20198;-78
2022/01/11 05:42:20;;;;;;;26.17;22.73;;;3.80;99.90;;;;;;5048307;28;20209;-79
2022/01/11 05:44:47;;;;;;;26.15;22.60;;;3.80;99.90;;;;;;5044411;28;20231;-79
2022/01/11 05:47:15;;;;;;;28.58;23.55;;;3.80;99.90;;;;;;5031157;28;20316;-79
2022/01/11 05:49:42;;;;;;;28.67;25.52;;;3.80;99.90;;;;;;5030908;28;20234;-79
2022/01/11 05:52:09;;;;;;;32.88;26.55;;;3.80;99.90;;;;;;5025865;28;20280;-79
2022/01/11 05:54:36;;;;;;;35.13;31.02;;;3.80;99.90;;;;;;5020713;28;20206;-80
2022/01/11 05:57:04;;;;;;;28.02;24.90;;;3.80;99.90;;;;;;5022431;28;20217;-79
2022/01/11 05:59:31;;;;;;;27.38;20.25;;;3.80;99.90;;;;;;5033295;28;20643;-91
2022/01/11 06:01:58;;;;;;;26.50;23.73;;;4.10;99.90;;;;;;5028434;28;20198;-76
2022/01/11 06:04:26;;;;;;;26.05;22.10;;;4.00;99.90;;;;;;5023167;28;20285;-76
2022/01/11 06:06:53;;;;;;;25.23;20.55;;;4.00;99.90;;;;;;5021408;28;20275;-76
2022/01/11 06:09:23;;;;;;;30.33;20.38;;;4.10;99.90;;;;;;5023509;28;20782;-76
2022/01/11 06:11:50;;;;;;;24.30;21.23;;;4.10;99.90;;;;;;5031141;28;20553;-85
2022/01/11 06:14:17;;;;;;;28.55;20.05;;;4.10;99.90;;;;;;5032612;28;20224;-85
2022/01/11 06:16:44;;;;;;;24.02;20.33;;;4.20;99.90;;;;;;5029693;28;20281;-85
2022/01/11 06:19:11;;;;;;;22.08;19.70;;;4.10;99.90;;;;;;5000276;28;20205;-77
2022/01/11 06:21:39;;;;;;;22.63;19.85;;;4.10;99.90;;;;;;5025688;28;20537;-77
2022/01/11 06:24:07;;;;;;;24.60;19.67;;;4.10;99.90;;;;;;5032318;28;20209;-76
2022/01/11 06:26:34;;;;;;;22.35;18.77;;;4.10;99.90;;;;;;5027161;28;20245;-76
2022/01/11 06:29:02;;;;;;;25.67;20.13;;;4.10;99.90;;;;;;5017465;28;20291;-78
2022/01/11 06:31:30;;;;;;;24.90;20.92;;;4.00;99.90;;;;;;5026109;28;20650;-77
2022/01/11 06:33:57;;;;;;;22.60;18.55;;;4.00;99.90;;;;;;5030331;28;20279;-77
2022/01/11 06:36:24;;;;;;;26.58;21.15;;;3.90;99.90;;;;;;5022873;28;21020;-78
2022/01/11 06:38:52;;;;;;;23.75;19.65;;;3.90;99.90;;;;;;5023912;28;20221;-78
2022/01/11 06:41:19;;;;;;;24.52;20.48;;;3.90;99.90;;;;;;5030345;28;20209;-75
2022/01/11 06:43:47;;;;;;;24.25;21.08;;;3.90;99.90;;;;;;5028313;28;20301;-79
2022/01/11 06:46:14;;;;;;;25.42;19.63;;;3.90;99.90;;;;;;5024574;28;20217;-76
2022/01/11 06:48:41;;;;;;;22.92;19.92;;;3.80;99.90;;;;;;5028876;28;20221;-77
2022/01/11 06:51:08;;;;;;;26.02;20.33;;;3.80;99.90;;;;;;5026280;28;20207;-77
2022/01/11 06:53:35;;;;;;;23.35;19.88;;;3.80;99.90;;;;;;5028140;28;20208;-79
2022/01/11 06:56:04;;;;;;;24.13;20.50;;;3.80;99.90;;;;;;5032805;28;20233;-81
2022/01/11 06:58:31;;;;;;;22.00;19.70;;;3.80;99.90;;;;;;5034758;28;20217;-77
2022/01/11 07:00:58;;;;;;;23.83;20.25;;;3.80;99.90;;;;;;5014195;28;20210;-78
2022/01/11 07:03:25;;;;;;;26.05;22.52;;;3.80;99.90;;;;;;5030975;28;20291;-75
2022/01/11 07:05:52;;;;;;;24.08;21.52;;;3.80;99.90;;;;;;5018744;28;20239;-75
2022/01/11 07:08:18;;;;;;;25.02;20.55;;;3.90;99.90;;;;;;5030676;28;20216;-76
2022/01/11 07:10:45;;;;;;;23.77;20.65;;;3.90;99.90;;;;;;5027817;28;20203;-75
2022/01/11 07:13:15;;;;;;;24.05;21.35;;;3.90;99.90;;;;;;5029130;28;20673;-76
2022/01/11 07:15:42;;;;;;;24.00;20.90;;;3.90;99.90;;;;;;5030535;28;20263;-75
2022/01/11 07:18:10;;;;;;;24.52;21.60;;;3.90;99.90;;;;;;5029745;28;20630;-75
2022/01/11 07:20:38;;;;;;;28.33;22.90;;;3.90;99.90;;;;;;5028442;28;20766;-76
2022/01/11 07:23:06;;;;;;;28.38;25.23;;;4.00;99.90;;;;;;5036204;28;20235;-75
2022/01/11 07:25:33;;;;;;;33.95;30.35;;;4.00;99.90;;;;;;5026154;28;20236;-74
2022/01/11 07:28:01;;;;;;;25.35;22.05;;;4.00;99.90;;;;;;5031767;28;20228;-75
2022/01/11 07:30:29;;;;;;;24.02;20.92;;;4.00;99.90;;;;;;5025321;28;20205;-76
2022/01/11 07:32:56;;;;;;;23.13;20.70;;;4.00;99.90;;;;;;5031234;28;20196;-76
2022/01/11 07:35:24;;;;;;;23.27;20.77;;;4.00;99.90;;;;;;5029295;28;20194;-76
2022/01/11 07:37:51;;;;;;;23.83;21.30;;;4.00;99.90;;;;;;5020722;28;20232;-76
2022/01/11 07:40:18;;;;;;;26.98;20.85;;;4.00;99.90;;;;;;5026648;28;20206;-77
2022/01/11 07:42:45;;;;;;;23.70;19.70;;;4.00;99.90;;;;;;5026288;28;20324;-76
2022/01/11 07:45:12;;;;;;;22.15;19.60;;;4.10;99.90;;;;;;5027743;28;20335;-76
2022/01/11 07:47:41;;;;;;;21.75;19.25;;;4.10;99.90;;;;;;5029014;28;20595;-77
2022/01/11 07:50:09;;;;;;;23.17;20.25;;;4.20;99.90;;;;;;5027796;28;20297;-76
2022/01/11 07:52:36;;;;;;;21.58;18.85;;;4.20;99.90;;;;;;5027866;28;20201;-76
2022/01/11 07:55:04;;;;;;;25.35;20.08;;;4.30;99.90;;;;;;5027129;28;20244;-76
2022/01/11 07:57:31;;;;;;;24.10;20.20;;;4.30;99.90;;;;;;5025854;28;20229;-77
2022/01/11 07:59:58;;;;;;;23.50;20.27;;;4.40;99.90;;;;;;5030496;28;20292;-76
2022/01/11 08:02:25;;;;;;;22.98;20.33;;;4.40;99.90;;;;;;5028735;28;20296;-77
2022/01/11 08:04:54;;;;;;;21.13;18.83;;;4.50;99.90;;;;;;5027949;28;20546;-76
2022/01/11 08:07:21;;;;;;;22.05;19.35;;;4.50;99.90;;;;;;5027995;28;20633;-77
2022/01/11 08:09:48;;;;;;;21.20;18.35;;;4.60;99.90;;;;;;5025553;28;20288;-76
2022/01/11 08:12:15;;;;;;;21.20;18.98;;;4.60;99.90;;;;;;5029553;28;20208;-77
2022/01/11 08:14:42;;;;;;;23.02;19.40;;;4.70;99.90;;;;;;5029451;28;20225;-77
2022/01/11 08:17:09;;;;;;;22.13;19.17;;;4.70;99.90;;;;;;5023125;28;20217;-76
2022/01/11 08:19:36;;;;;;;23.38;20.52;;;4.70;99.90;;;;;;5022294;28;20197;-77
2022/01/11 08:22:05;;;;;;;21.58;18.98;;;4.70;99.90;;;;;;5028004;28;20642;-76
2022/01/11 08:24:32;;;;;;;22.45;19.95;;;4.70;99.90;;;;;;5028616;28;20197;-76
2022/01/11 08:26:59;;;;;;;23.55;19.50;;;4.70;99.90;;;;;;5023039;28;20315;-76
2022/01/11 08:29:26;;;;;;;19.08;17.10;;;4.70;99.90;;;;;;5020482;28;20198;-76
2022/01/11 08:31:54;;;;;;;23.00;18.40;;;4.80;99.90;;;;;;5031851;28;20584;-76
2022/01/11 08:34:21;;;;;;;21.30;18.63;;;4.80;99.90;;;;;;5028596;28;20201;-75
2022/01/11 08:36:50;;;;;;;20.38;18.17;;;4.80;99.90;;;;;;5026540;28;20252;-76
2022/01/11 08:39:19;;;;;;;21.52;19.20;;;4.90;99.90;;;;;;5024802;28;20676;-76
2022/01/11 08:41:47;;;;;;;21.38;18.80;;;4.90;99.90;;;;;;5028934;28;20561;-76
2022/01/11 08:44:14;;;;;;;21.85;19.58;;;4.90;99.90;;;;;;5027702;28;20214;-75
2022/01/11 08:46:43;;;;;;;23.80;19.33;;;4.90;99.90;;;;;;5023936;28;20234;-76
2022/01/11 08:49:10;;;;;;;21.40;19.20;;;5.00;99.90;;;;;;5028704;28;20524;-76
2022/01/11 08:51:37;;;;;;;19.50;17.40;;;5.10;99.90;;;;;;5022197;28;20205;-75
2022/01/11 08:54:05;;;;;;;21.73;17.98;;;5.10;99.90;;;;;;5021781;28;21929;-76
2022/01/11 08:56:33;;;;;;;22.67;18.27;;;5.10;99.90;;;;;;5022629;28;20221;-76
2022/01/11 08:59:00;;;;;;;21.80;18.70;;;5.10;99.90;;;;;;5025821;28;20756;-76
2022/01/11 09:01:28;;;;;;;21.30;18.70;;;5.10;99.90;;;;;;5027589;28;20206;-75
2022/01/11 09:03:55;;;;;;;21.85;19.55;;;5.20;99.90;;;;;;5027330;28;20269;-75
2022/01/11 09:06:21;;;;;;;21.48;19.13;;;5.30;99.90;;;;;;5028662;28;21047;-76
2022/01/11 09:08:48;;;;;;;22.08;19.67;;;5.30;99.90;;;;;;5027788;28;20201;-76
2022/01/11 09:11:15;;;;;;;20.17;17.50;;;5.40;99.90;;;;;;5026387;28;20197;-75
2022/01/11 09:13:44;;;;;;;20.48;17.90;;;5.40;99.90;;;;;;5026163;28;20201;-77
2022/01/11 09:16:13;;;;;;;21.20;18.90;;;5.50;99.90;;;;;;5024445;28;20209;-75
2022/01/11 09:18:40;;;;;;;24.00;20.15;;;5.50;99.90;;;;;;5024284;28;20205;-76
2022/01/11 09:21:07;;;;;;;22.05;19.65;;;5.50;99.90;;;;;;5023966;28;20259;-75
2022/01/11 09:23:35;;;;;;;23.58;19.48;;;5.50;99.90;;;;;;5018334;28;20197;-75
2022/01/11 09:26:03;;;;;;;23.88;19.52;;;5.50;99.90;;;;;;5027752;28;20225;-75
2022/01/11 09:28:30;;;;;;;22.65;20.25;;;5.50;99.90;;;;;;5020742;28;20208;-75
2022/01/11 09:30:58;;;;;;;21.20;18.98;;;5.60;99.90;;;;;;5020380;28;20201;-76
2022/01/11 09:33:26;;;;;;;23.75;19.48;;;5.60;99.90;;;;;;5027894;28;20216;-76
2022/01/11 09:35:53;;;;;;;21.60;18.08;;;5.60;99.90;;;;;;5022297;28;20206;-76
2022/01/11 09:38:19;;;;;;;22.23;18.25;;;5.70;99.90;;;;;;5027030;28;20224;-77
2022/01/11 09:40:47;;;;;;;23.40;20.30;;;5.80;99.90;;;;;;5026696;28;20280;-75
2022/01/11 09:43:14;;;;;;;21.13;18.90;;;5.90;99.90;;;;;;5028086;28;20194;-77
2022/01/11 09:45:41;;;;;;;20.67;18.52;;;6.00;99.90;;;;;;5028949;28;20720;-76
2022/01/11 09:48:10;;;;;;;22.00;19.67;;;6.10;99.90;;;;;;5029618;28;20678;-76
2022/01/11 09:50:37;;;;;;;21.58;18.95;;;6.10;99.90;;;;;;5025620;28;20653;-76
2022/01/11 09:53:04;;;;;;;21.48;19.17;;;6.10;99.90;;;;;;5027865;28;20217;-76
2022/01/11 09:55:32;;;;;;;19.42;17.40;;;6.20;99.90;;;;;;5028598;28;20201;-76
2022/01/11 09:57:59;;;;;;;18.10;16.20;;;6.20;99.90;;;;;;5029451;28;20324;-76
2022/01/11 10:00:26;;;;;;;23.38;17.55;;;6.20;99.90;;;;;;5024994;28;20198;-75
2022/01/11 10:02:53;;;;;;;19.98;17.30;;;6.00;99.90;;;;;;5025008;28;20213;-76
2022/01/11 10:05:21;;;;;;;19.15;17.15;;;6.00;99.90;;;;;;5024725;28;20271;-76
2022/01/11 10:07:48;;;;;;;20.60;17.83;;;5.90;99.90;;;;;;5025137;28;20636;-76
2022/01/11 10:10:18;;;;;;;17.50;15.55;;;6.00;99.90;;;;;;5022368;28;20195;-75
2022/01/11 10:12:47;;;;;;;17.98;16.08;;;6.00;99.90;;;;;;5028604;28;20222;-76
2022/01/11 10:15:14;;;;;;;19.70;17.58;;;6.00;99.90;;;;;;5029046;28;20204;-76
2022/01/11 10:17:43;;;;;;;17.60;15.70;;;6.10;99.90;;;;;;5033745;28;20279;-76
2022/01/11 10:20:12;;;;;;;16.55;14.68;;;6.10;99.90;;;;;;5030743;28;20288;-76
2022/01/11 10:22:49;;;;;;;17.15;15.40;;;6.20;99.90;;;;;;5033108;28;20194;-75
2022/01/11 10:25:17;;;;;;;14.73;12.32;;;6.40;99.90;;;;;;5029472;28;20280;-76
2022/01/11 10:27:46;;;;;;;14.80;13.23;;;6.50;99.90;;;;;;5027107;28;20233;-76
2022/01/11 10:30:14;;;;;;;17.95;14.80;;;6.60;99.90;;;;;;5021463;28;20578;-76
2022/01/11 10:32:45;;;;;;;15.55;13.90;;;6.90;99.90;;;;;;5033551;28;20284;-80
2022/01/11 10:35:13;;;;;;;16.27;14.57;;;7.20;99.90;;;;;;5027642;28;20280;-79
2022/01/11 10:37:42;;;;;;;16.73;14.80;;;7.50;99.90;;;;;;5031151;28;20305;-79
2022/01/11 10:40:14;;;;;;;15.13;13.63;;;7.60;99.90;;;;;;5031344;28;20196;-79
2022/01/11 10:42:46;;;;;;;14.95;13.35;;;7.60;99.90;;;;;;5028986;28;20208;-75
2022/01/11 10:45:16;;;;;;;16.92;15.05;;;7.60;99.90;;;;;;5026287;28;20221;-75
2022/01/11 10:47:46;;;;;;;13.02;11.73;;;7.50;99.90;;;;;;5025476;28;20322;-74
2022/01/11 10:50:18;;;;;;;13.82;12.10;;;7.30;99.90;;;;;;5031477;28;20266;-75
2022/01/11 10:52:45;;;;;;;15.43;13.38;;;7.30;99.90;;;;;;5032553;28;20221;-79
2022/01/11 10:55:16;;;;;;;15.65;14.15;;;7.30;99.90;;;;;;5029567;28;20198;-76
2022/01/11 10:57:48;;;;;;;15.10;13.55;;;7.00;99.90;;;;;;5030483;28;20226;-75
2022/01/11 11:00:22;;;;;;;16.65;14.63;;;7.10;99.90;;;;;;5030071;28;20284;-75
2022/01/11 11:03:01;;;;;;;15.68;14.13;;;7.30;99.90;;;;;;5025300;28;20288;-75
2022/01/11 11:05:31;;;;;;;14.77;13.27;;;7.50;99.90;;;;;;5029186;28;20189;-76
2022/01/11 11:08:07;;;;;;;15.38;13.57;;;7.70;99.90;;;;;;5023488;28;20562;-75
2022/01/11 11:10:41;;;;;;;14.65;13.23;;;7.80;99.90;;;;;;5024479;28;20716;-75
2022/01/11 11:13:11;;;;;;;14.30;12.90;;;7.90;99.90;;;;;;5030134;28;20190;-75
2022/01/11 11:15:40;;;;;;;14.40;12.90;;;8.10;99.90;;;;;;5027744;28;20692;-75
2022/01/11 11:18:21;;;;;;;14.77;13.27;;;8.20;99.90;;;;;;5028598;28;20205;-75
2022/01/11 11:20:48;;;;;;;12.05;10.90;;;8.40;99.90;;;;;;5028066;28;20740;-76
2022/01/11 11:23:17;;;;;;;11.23;10.13;;;8.70;99.90;;;;;;5030001;28;20636;-75
2022/01/11 11:25:45;;;;;;;11.32;10.02;;;8.80;99.90;;;;;;5027542;28;20195;-76
2022/01/11 11:28:12;;;;;;;10.30;9.30;;;8.90;99.90;;;;;;5031681;28;20314;-76
2022/01/11 11:30:40;;;;;;;11.38;10.23;;;9.00;99.90;;;;;;5022837;28;20205;-76
2022/01/11 11:33:07;;;;;;;11.60;10.45;;;9.00;99.90;;;;;;5025742;28;20302;-75
2022/01/11 11:35:34;;;;;;;10.63;9.60;;;8.90;99.90;;;;;;5030629;28;20198;-76
2022/01/11 11:38:04;;;;;;;11.35;10.20;;;8.70;99.90;;;;;;5024877;28;20225;-75
2022/01/11 11:40:32;;;;;;;11.50;10.30;;;8.70;99.90;;;;;;5027228;28;20196;-76
2022/01/11 11:43:04;;;;;;;10.10;9.20;;;8.80;99.90;;;;;;5027425;28;20199;-76
2022/01/11 11:45:32;;;;;;;9.82;8.70;;;8.80;99.90;;;;;;5020723;28;20213;-77
2022/01/11 11:48:06;;;;;;;11.52;10.05;;;8.90;99.90;;;;;;5023770;28;20244;-77
2022/01/11 11:50:34;;;;;;;9.80;8.80;;;8.90;99.90;;;;;;5027207;28;20289;-77
2022/01/11 11:53:01;;;;;;;10.93;9.82;;;9.00;99.90;;;;;;5029014;28;20204;-76
2022/01/11 11:55:30;;;;;;;10.85;9.77;;;9.10;99.90;;;;;;5027797;28;20199;-77
2022/01/11 11:58:01;;;;;;;9.43;8.45;;;9.00;99.90;;;;;;5031783;28;20209;-75
2022/01/11 12:00:30;;;;;;;8.80;7.45;;;8.90;99.90;;;;;;5028942;28;20195;-76
2022/01/11 12:02:59;;;;;;;7.32;6.10;;;8.80;99.90;;;;;;5038242;28;20222;-76
2022/01/11 12:05:36;;;;;;;5.35;4.85;;;8.50;99.90;;;;;;5045166;28;20277;-76
2022/01/11 12:08:32;;;;;;;6.15;5.55;;;8.20;99.90;;;;;;5044191;28;20260;-76
2022/01/11 12:11:03;;;;;;;4.35;3.95;;;7.70;99.90;;;;;;5035380;28;20351;-76
2022/01/11 12:13:44;;;;;;;3.92;3.53;;;7.40;99.90;;;;;;5024211;28;20663;-75
2022/01/11 12:16:39;;;;;;;3.25;2.95;;;7.20;99.90;;;;;;5034595;28;20218;-83
2022/01/11 12:19:11;;;;;;;4.38;3.97;;;7.00;99.90;;;;;;5049819;28;20224;-83
2022/01/11 12:21:44;;;;;;;4.03;3.25;;;7.10;99.90;;;;;;5052173;28;20213;-84
2022/01/11 12:24:12;;;;;;;3.88;3.55;;;7.20;99.90;;;;;;5046031;28;20233;-77
2022/01/11 12:26:40;;;;;;;3.92;3.50;;;7.10;99.90;;;;;;5038617;28;20252;-76
2022/01/11 12:29:25;;;;;;;3.95;3.65;;;7.10;99.90;;;;;;5029012;28;20193;-76
2022/01/11 12:31:55;;;;;;;5.95;4.82;;;6.90;99.90;;;;;;5025791;28;20205;-75
2022/01/11 12:34:54;;;;;;;2.95;2.75;;;6.90;99.90;;;;;;5025925;28;20197;-76
2022/01/11 12:37:27;;;;;;;3.30;3.00;;;6.90;99.90;;;;;;5025951;28;20704;-76
2022/01/11 12:40:09;;;;;;;3.17;2.90;;;7.10;99.90;;;;;;5029923;28;20288;-76
2022/01/11 12:42:39;;;;;;;2.63;2.42;;;7.20;99.90;;;;;;5027300;28;20204;-76
2022/01/11 12:47:52;;;;;;;3.28;3.08;;;7.20;99.90;;;;;;5025156;28;20719;-76
2022/01/11 12:50:19;;;;;;;4.57;2.72;;;7.20;99.90;;;;;;5024403;28;20287;-77